This is the latest recevied weather packets stored in our database for station/object N9XTN-3. If no packets are shown the sender has not sent any weather packets the latest 10 day(s).
| Time | Temp. | Humidity | Pressure | Rain* | Wind** | Luminosity | Snow |
|---|---|---|---|---|---|---|---|
| 1777700717 | 4.44° C | 77% | 1020.5 hPa | 0 mm | - | - | - |
| 1777699857 | 4.44° C | 76% | 1020.6 hPa | 0 mm | - | - | - |
| 1777697417 | 3.89° C | 68% | 1020.3 hPa | 0 mm | - | - | - |
| 1777691717 | 5.56° C | 60% | 1019.8 hPa | 0 mm | - | - | - |
| 1777691417 | 6.11° C | 60% | 1019.8 hPa | 0 mm | - | - | - |
| 1777689917 | 7.78° C | 53% | 1019.5 hPa | 0 mm | - | - | - |
| 1777688717 | 8.89° C | 47% | 1019.5 hPa | 0 mm | - | - | - |
| 1777688117 | 9.44° C | 44% | 1019.4 hPa | 0 mm | - | - | - |
| 1777686057 | 10.56° C | 41% | 1018.9 hPa | 0 mm | - | - | - |
| 1777682737 | 12.22° C | 36% | 1018.3 hPa | 0 mm | - | - | - |
| 1777682457 | 12.22° C | 36% | 1018.3 hPa | 0 mm | - | - | - |
| 1777682117 | 12.78° C | 35% | 1018.2 hPa | 0 mm | - | - | - |
| 1777680917 | 13.33° C | 35% | 1018.2 hPa | 0 mm | - | - | - |
| 1777679117 | 13.89° C | 32% | 1018.1 hPa | 0 mm | - | - | - |
| 1777677317 | 13.89° C | 32% | 1018.1 hPa | 0 mm | - | - | - |
| 1777676117 | 13.89° C | 32% | 1018.2 hPa | 0 mm | - | - | - |
| 1777669817 | 13.89° C | 33% | 1018.3 hPa | 0 mm | - | - | - |
| 1777668037 | 13.89° C | 32% | 1018.4 hPa | 0 mm | - | - | - |
| 1777666517 | 13.89° C | 34% | 1018.6 hPa | 0 mm | - | - | - |
| 1777665617 | 13.89° C | 35% | 1018.7 hPa | 0 mm | - | - | - |
| 1777662917 | 13.89° C | 39% | 1018.9 hPa | 0 mm | - | - | - |
| 1777662018 | 13.33° C | 40% | 1018.9 hPa | 0 mm | - | - | - |
| 1777660837 | 13.33° C | 42% | 1018.9 hPa | 0 mm | - | - | - |
| 1777660237 | 13.33° C | 45% | 1018.8 hPa | 0 mm | - | - | - |
| 1777659617 | 12.78° C | 46% | 1018.9 hPa | 0 mm | - | - | - |
* Rain latest hour (hover to see other rain measurements)
** Current wind speed in m/s (hover to see current wind gust speed)